createdAt,value
2019-05-16T00:00:54.534Z,62.59
2019-05-16T00:01:54.427Z,62.78
2019-05-16T00:02:54.320Z,63.07
2019-05-16T00:03:54.225Z,63.45
2019-05-16T00:04:54.119Z,63.64
2019-05-16T00:05:54.711Z,63.73
2019-05-16T00:06:53.924Z,64.78
2019-05-16T00:07:53.823Z,64.49
2019-05-16T00:08:53.722Z,67.05
2019-05-16T00:09:53.623Z,66.77
2019-05-16T00:10:53.540Z,67.24
2019-05-16T00:11:53.424Z,67.33
2019-05-16T00:12:53.322Z,67.14
2019-05-16T00:13:53.223Z,66.96
2019-05-16T00:14:53.123Z,66.77
2019-05-16T00:15:53.039Z,67.24
2019-05-16T00:16:52.925Z,66.96
2019-05-16T00:17:52.824Z,67.05
2019-05-16T00:18:52.730Z,66.39
2019-05-16T00:19:52.624Z,66.58
2019-05-16T00:20:52.530Z,67.81
2019-05-16T00:21:52.441Z,68.10
2019-05-16T00:22:52.328Z,67.90
2019-05-16T00:23:52.235Z,68.19
2019-05-16T00:24:52.126Z,67.90
2019-05-16T00:25:52.044Z,68.32
2019-05-16T00:26:51.929Z,68.60
2019-05-16T00:27:51.841Z,68.41
2019-05-16T00:28:51.728Z,68.13
2019-05-16T00:29:51.630Z,68.19
2019-05-16T00:30:51.533Z,67.90
2019-05-16T00:31:51.445Z,67.27
2019-05-16T00:32:51.359Z,68.70
2019-05-16T00:33:51.232Z,68.38
2019-05-16T00:34:51.133Z,68.38
2019-05-16T00:36:02.211Z,68.04
2019-05-16T00:36:50.952Z,68.00
2019-05-16T00:37:51.094Z,67.94
2019-05-16T00:38:50.734Z,68.19
2019-05-16T00:39:50.635Z,68.13
2019-05-16T00:40:50.541Z,67.71
2019-05-16T00:41:50.450Z,68.04
2019-05-16T00:42:50.337Z,67.37
2019-05-16T00:43:50.245Z,67.24
2019-05-16T00:44:50.238Z,68.19
2019-05-16T00:45:50.054Z,67.90
2019-05-16T00:46:49.950Z,67.81
2019-05-16T00:47:49.836Z,67.81
2019-05-16T00:48:49.735Z,67.43
2019-05-16T00:49:49.637Z,67.33
2019-05-16T00:50:49.538Z,67.33
2019-05-16T00:51:49.553Z,66.80
2019-05-16T00:52:49.341Z,67.05
2019-05-16T00:53:49.241Z,67.05
2019-05-16T00:54:49.140Z,66.96
2019-05-16T00:55:49.040Z,66.67
2019-05-16T00:56:48.951Z,65.91
2019-05-16T00:57:48.840Z,66.10
2019-05-16T00:58:48.842Z,65.91
2019-05-16T00:59:48.644Z,66.48
2019-05-16T01:00:50.056Z,66.10
2019-05-16T01:01:50.004Z,65.91
2019-05-16T01:02:48.691Z,66.01
2019-05-16T01:03:48.464Z,65.44
2019-05-16T01:04:48.690Z,65.25
2019-05-16T01:05:48.241Z,64.78
2019-05-16T01:06:48.476Z,64.49
2019-05-16T01:07:48.171Z,64.30
2019-05-16T01:08:48.782Z,63.82
2019-05-16T01:09:48.776Z,63.82
2019-05-16T01:10:48.484Z,63.35
2019-05-16T01:11:48.679Z,63.07
2019-05-16T01:12:48.087Z,62.78
2019-05-16T01:13:48.731Z,62.97
2019-05-16T01:14:47.820Z,62.97
2019-05-16T01:15:48.672Z,62.50
2019-05-16T01:16:48.799Z,62.31
2019-05-16T01:17:48.439Z,62.59
2019-05-16T01:18:48.594Z,62.02
2019-05-16T01:19:48.474Z,61.83
2019-05-16T01:20:48.073Z,60.98
2019-05-16T01:21:48.337Z,60.98
2019-05-16T01:22:48.809Z,61.17
2019-05-16T01:23:48.219Z,60.70
2019-05-16T01:24:46.153Z,60.03
2019-05-16T01:25:48.110Z,59.84
2019-05-16T01:26:48.372Z,60.03
2019-05-16T01:27:47.695Z,59.84
2019-05-16T01:28:45.750Z,59.75
2019-05-16T01:29:47.620Z,59.94
2019-05-16T01:30:45.554Z,60.13
2019-05-16T01:31:45.468Z,60.03
2019-05-16T01:32:45.352Z,59.56
2019-05-16T01:33:45.357Z,59.18
2019-05-16T01:34:45.154Z,59.18
2019-05-16T01:35:45.055Z,58.80
2019-05-16T01:36:44.969Z,58.99
2019-05-16T01:37:44.855Z,58.42
2019-05-16T01:38:44.756Z,58.23
2019-05-16T01:39:44.657Z,58.04
2019-05-16T01:40:44.658Z,58.14
2019-05-16T01:41:44.469Z,57.76
2019-05-16T01:42:44.355Z,57.38
2019-05-16T01:43:44.256Z,57.38
2019-05-16T01:44:44.171Z,56.81
2019-05-16T01:45:44.058Z,56.52
2019-05-16T01:46:43.970Z,56.43
2019-05-16T01:47:43.856Z,56.15
2019-05-16T01:48:43.756Z,56.34
2019-05-16T01:49:43.657Z,55.67
2019-05-16T01:50:43.559Z,55.76
2019-05-16T01:51:43.475Z,55.76
2019-05-16T01:52:43.361Z,55.19
2019-05-16T01:53:43.261Z,54.34
2019-05-16T01:54:43.870Z,54.44
2019-05-16T01:55:43.060Z,54.25
2019-05-16T01:56:42.961Z,54.15
2019-05-16T01:57:42.874Z,53.49
2019-05-16T01:58:42.762Z,53.30
2019-05-16T01:59:42.669Z,52.45
2019-05-16T02:00:52.728Z,53.11
2019-05-16T02:01:42.570Z,52.73
2019-05-16T02:02:42.379Z,52.92
2019-05-16T02:03:42.264Z,52.83
2019-05-16T02:04:42.161Z,53.02
2019-05-16T02:05:42.062Z,52.64
2019-05-16T02:06:51.660Z,52.73
2019-05-16T02:07:41.992Z,51.97
2019-05-16T02:08:41.766Z,51.59
2019-05-16T02:09:41.666Z,51.40
2019-05-16T02:10:41.565Z,51.59
2019-05-16T02:11:41.470Z,50.64
2019-05-16T02:12:41.380Z,51.03
2019-05-16T02:13:41.285Z,50.36
2019-05-16T02:14:41.166Z,49.69
2019-05-16T02:15:41.068Z,49.41
2019-05-16T02:16:40.969Z,48.56
2019-05-16T02:17:40.883Z,48.75
2019-05-16T02:18:40.771Z,48.46
2019-05-16T02:19:40.669Z,47.61
2019-05-16T02:20:40.570Z,47.32
2019-05-16T02:21:40.468Z,46.85
2019-05-16T02:22:40.385Z,46.47
2019-05-16T02:23:40.272Z,45.71
2019-05-16T02:24:40.172Z,45.43
2019-05-16T02:25:40.807Z,44.48
2019-05-16T02:26:39.969Z,44.67
2019-05-16T02:27:41.030Z,43.62
2019-05-16T02:28:43.554Z,43.72
2019-05-16T02:29:40.209Z,43.43
2019-05-16T02:30:42.200Z,42.49
2019-05-16T02:31:42.145Z,41.73
2019-05-16T02:32:41.688Z,41.25
2019-05-16T02:33:40.559Z,39.83
2019-05-16T02:34:41.634Z,38.60
2019-05-16T02:35:40.486Z,37.46
2019-05-16T02:36:40.538Z,36.42
2019-05-16T02:37:42.217Z,35.47
2019-05-16T02:38:42.005Z,34.42
2019-05-16T02:39:40.934Z,33.48
2019-05-16T02:40:41.508Z,32.53
2019-05-16T02:41:38.479Z,31.48
2019-05-16T02:42:41.756Z,30.82
2019-05-16T02:43:41.686Z,29.87
2019-05-16T02:44:40.917Z,28.74
2019-05-16T02:45:41.385Z,28.36
2019-05-16T02:46:41.623Z,27.31
2019-05-16T02:47:37.890Z,27.22
2019-05-16T02:48:40.825Z,26.36
2019-05-16T02:49:37.676Z,25.98
2019-05-16T02:50:37.576Z,25.23
2019-05-16T02:51:40.417Z,24.28
2019-05-16T02:52:37.391Z,23.43
2019-05-16T02:53:37.276Z,22.47
2019-05-16T02:54:37.176Z,22.09
2019-05-16T02:55:37.075Z,21.81
2019-05-16T02:56:36.976Z,21.15
2019-05-16T02:57:36.888Z,20.67
2019-05-16T02:58:36.782Z,20.57
2019-05-16T02:59:36.680Z,19.44
2019-05-16T03:00:36.578Z,19.34
2019-05-16T03:01:36.478Z,18.96
2019-05-16T03:02:36.391Z,18.02
2019-05-16T03:03:36.278Z,17.83
2019-05-16T03:04:39.943Z,17.54
2019-05-16T03:05:36.082Z,17.07
2019-05-16T03:06:35.985Z,16.41
2019-05-16T03:07:41.646Z,16.03
2019-05-16T03:08:35.775Z,16.03
2019-05-16T03:09:35.675Z,15.55
2019-05-16T03:10:35.606Z,14.98
2019-05-16T03:11:35.477Z,15.17
2019-05-16T03:12:35.392Z,14.51
2019-05-16T03:13:35.277Z,14.32
2019-05-16T03:14:35.186Z,14.32
2019-05-16T03:15:35.077Z,14.32
2019-05-16T03:16:34.976Z,13.65
2019-05-16T03:17:34.889Z,14.03
2019-05-16T03:18:34.777Z,14.13
2019-05-16T03:19:34.676Z,13.75
2019-05-16T03:20:34.584Z,13.65
2019-05-16T03:21:34.476Z,13.46
2019-05-16T03:22:34.391Z,13.56
2019-05-16T03:23:34.275Z,12.71
2019-05-16T03:24:34.478Z,12.80
2019-05-16T03:25:34.080Z,12.80
2019-05-16T03:26:33.976Z,12.71
2019-05-16T03:27:33.890Z,12.90
2019-05-16T03:28:33.776Z,12.33
2019-05-16T03:29:33.687Z,12.71
2019-05-16T03:30:35.383Z,12.23
2019-05-16T03:31:34.487Z,12.04
2019-05-16T03:32:34.609Z,11.85
2019-05-16T03:33:41.590Z,12.04
2019-05-16T03:34:34.426Z,11.66
2019-05-16T03:35:34.354Z,11.85
2019-05-16T03:36:34.569Z,11.19
2019-05-16T03:37:49.514Z,11.38
2019-05-16T03:38:32.790Z,11.19
2019-05-16T03:39:32.695Z,10.81
2019-05-16T03:40:32.581Z,11.00
2019-05-16T03:41:32.479Z,10.90
2019-05-16T03:42:32.378Z,10.62
2019-05-16T03:43:32.294Z,10.52
2019-05-16T03:44:32.178Z,10.14
2019-05-16T03:45:32.382Z,10.24
2019-05-16T03:46:31.980Z,9.48
2019-05-16T03:47:31.883Z,9.39
2019-05-16T03:48:31.864Z,9.29
2019-05-16T03:49:31.677Z,8.91
2019-05-16T03:50:31.575Z,8.91
2019-05-16T03:51:31.479Z,8.53
2019-05-16T03:52:31.379Z,8.25
2019-05-16T03:53:31.971Z,7.78
2019-05-16T03:54:31.647Z,8.06
2019-05-16T03:55:32.416Z,7.87
2019-05-16T03:56:30.979Z,7.87
2019-05-16T03:57:30.882Z,7.40
2019-05-16T03:58:31.141Z,7.40
2019-05-16T03:59:31.508Z,7.30
2019-05-16T04:00:31.648Z,7.11
2019-05-16T04:01:31.270Z,7.20
2019-05-16T04:02:31.103Z,6.82
2019-05-16T04:03:33.088Z,6.73
2019-05-16T04:04:30.931Z,6.63
2019-05-16T04:05:31.763Z,6.54
2019-05-16T04:06:31.166Z,5.97
2019-05-16T04:07:31.711Z,6.45
2019-05-16T04:08:31.080Z,6.26
2019-05-16T04:09:31.563Z,6.07
2019-05-16T04:10:30.984Z,6.26
2019-05-16T04:11:32.072Z,5.97
2019-05-16T04:12:30.876Z,5.78
2019-05-16T04:13:31.436Z,5.88
2019-05-16T04:14:30.950Z,5.40
2019-05-16T04:15:31.108Z,5.12
2019-05-16T04:16:31.404Z,5.21
2019-05-16T04:17:31.407Z,5.31
2019-05-16T04:18:31.855Z,5.21
2019-05-16T04:19:31.286Z,4.93
2019-05-16T04:20:30.449Z,5.02
2019-05-16T04:21:31.878Z,5.12
2019-05-16T04:22:31.526Z,4.93
2019-05-16T04:23:30.998Z,5.12
2019-05-16T04:24:31.412Z,5.12
2019-05-16T04:25:30.939Z,5.02
2019-05-16T04:26:30.570Z,5.12
2019-05-16T04:27:30.831Z,5.21
2019-05-16T04:28:27.800Z,5.40
2019-05-16T04:29:27.676Z,5.40
2019-05-16T04:30:31.033Z,4.83
2019-05-16T04:31:30.535Z,4.83
2019-05-16T04:32:27.376Z,4.93
2019-05-16T04:33:30.604Z,4.93
2019-05-16T04:34:27.176Z,4.93
2019-05-16T04:35:27.393Z,4.83
2019-05-16T04:36:26.988Z,4.55
2019-05-16T04:37:26.877Z,4.46
2019-05-16T04:38:39.086Z,4.46
2019-05-16T04:39:26.675Z,4.55
2019-05-16T04:40:26.578Z,4.55
2019-05-16T04:41:26.476Z,4.46
2019-05-16T04:42:26.484Z,4.55
2019-05-16T04:43:26.292Z,4.55
2019-05-16T04:44:26.178Z,4.36
2019-05-16T04:45:26.076Z,4.64
2019-05-16T04:46:25.974Z,4.64
2019-05-16T04:47:25.893Z,4.36
2019-05-16T04:48:25.899Z,4.17
2019-05-16T04:49:25.679Z,4.17
2019-05-16T04:50:25.576Z,4.08
2019-05-16T04:51:25.478Z,4.27
2019-05-16T04:52:25.381Z,4.27
2019-05-16T04:53:25.283Z,4.27
2019-05-16T04:54:25.191Z,4.08
2019-05-16T04:55:25.078Z,4.46
2019-05-16T04:56:24.975Z,4.36
2019-05-16T04:57:24.875Z,4.17
2019-05-16T04:58:24.780Z,3.98
2019-05-16T04:59:24.698Z,3.98
2019-05-16T05:00:24.578Z,3.31
2019-05-16T05:01:24.476Z,3.13
2019-05-16T05:02:24.377Z,3.70
2019-05-16T05:03:24.281Z,3.98
2019-05-16T05:04:24.192Z,3.98
2019-05-16T05:05:24.090Z,3.79
2019-05-16T05:06:23.976Z,3.98
2019-05-16T05:07:23.878Z,3.89
2019-05-16T05:08:23.782Z,4.08
2019-05-16T05:09:23.692Z,3.79
2019-05-16T05:10:23.575Z,3.79
2019-05-16T05:11:23.480Z,3.31
2019-05-16T05:12:23.375Z,3.79
2019-05-16T05:13:23.277Z,3.79
2019-05-16T05:14:23.191Z,3.79
2019-05-16T05:15:23.076Z,3.79
2019-05-16T05:16:22.977Z,3.79
2019-05-16T05:17:22.877Z,3.79
2019-05-16T05:18:22.775Z,3.31
2019-05-16T05:19:22.691Z,3.41
2019-05-16T05:20:22.576Z,3.79
2019-05-16T05:21:22.478Z,3.50
2019-05-16T05:22:22.375Z,3.41
2019-05-16T05:23:22.285Z,3.89
2019-05-16T05:24:22.190Z,3.41
2019-05-16T05:25:22.079Z,3.13
2019-05-16T05:26:21.976Z,3.41
2019-05-16T05:27:21.880Z,3.98
2019-05-16T05:28:21.781Z,3.70
2019-05-16T05:29:21.689Z,3.89
2019-05-16T05:30:21.575Z,3.98
2019-05-16T05:31:24.720Z,3.89
2019-05-16T05:32:21.376Z,3.98
2019-05-16T05:33:21.496Z,3.98
2019-05-16T05:34:21.189Z,4.08
2019-05-16T05:35:21.085Z,4.46
2019-05-16T05:36:21.268Z,4.55
2019-05-16T05:37:20.874Z,5.31
2019-05-16T05:38:21.573Z,4.93
2019-05-16T05:39:20.690Z,4.93
2019-05-16T05:40:20.575Z,5.31
2019-05-16T05:41:20.475Z,5.12
2019-05-16T05:42:20.377Z,5.21
2019-05-16T05:43:21.550Z,5.21
2019-05-16T05:44:20.445Z,5.31
2019-05-16T05:45:20.263Z,5.40
2019-05-16T05:46:20.543Z,5.02
2019-05-16T05:47:20.064Z,5.40
2019-05-16T05:48:21.523Z,5.69
2019-05-16T05:49:20.495Z,5.40
2019-05-16T05:50:20.160Z,5.02
2019-05-16T05:51:20.740Z,5.31
2019-05-16T05:52:20.812Z,5.21
2019-05-16T05:53:20.762Z,5.40
2019-05-16T05:54:20.372Z,4.93
2019-05-16T05:55:20.127Z,5.59
2019-05-16T05:56:19.781Z,5.31
2019-05-16T05:57:20.875Z,5.31
2019-05-16T05:58:20.598Z,5.12
2019-05-16T05:59:20.170Z,5.12
2019-05-16T06:00:21.055Z,4.36
2019-05-16T06:01:20.586Z,4.64
2019-05-16T06:02:20.145Z,4.74
2019-05-16T06:03:21.635Z,4.17
2019-05-16T06:04:19.772Z,4.27
2019-05-16T06:05:20.239Z,4.46
2019-05-16T06:06:17.979Z,4.27
2019-05-16T06:07:20.429Z,4.17
2019-05-16T06:08:19.936Z,4.36
2019-05-16T06:09:26.331Z,5.40
2019-05-16T06:10:19.761Z,5.40
2019-05-16T06:11:17.490Z,5.88
2019-05-16T06:12:17.484Z,5.88
2019-05-16T06:13:17.275Z,6.07
2019-05-16T06:14:17.200Z,5.69
2019-05-16T06:15:17.075Z,5.88
2019-05-16T06:16:16.977Z,5.88
2019-05-16T06:17:16.878Z,6.54
2019-05-16T06:18:16.779Z,6.82
2019-05-16T06:19:16.694Z,6.26
2019-05-16T06:20:16.583Z,6.82
2019-05-16T06:21:16.475Z,7.11
2019-05-16T06:22:16.377Z,7.01
2019-05-16T06:23:16.279Z,7.68
2019-05-16T06:24:16.469Z,7.59
2019-05-16T06:25:16.082Z,7.30
2019-05-16T06:26:16.078Z,7.11
2019-05-16T06:27:15.885Z,6.73
2019-05-16T06:28:15.782Z,6.92
2019-05-16T06:29:15.694Z,6.92
2019-05-16T06:30:15.576Z,7.01
2019-05-16T06:31:15.478Z,7.30
2019-05-16T06:32:15.376Z,7.30
2019-05-16T06:33:15.376Z,6.82
2019-05-16T06:34:15.477Z,7.01
2019-05-16T06:35:15.091Z,6.92
2019-05-16T06:36:14.978Z,7.20
2019-05-16T06:37:14.878Z,7.68
2019-05-16T06:38:14.780Z,7.87
2019-05-16T06:39:14.680Z,7.87
2019-05-16T06:40:14.677Z,8.34
2019-05-16T06:41:14.480Z,8.72
2019-05-16T06:42:14.381Z,8.25
2019-05-16T06:43:14.280Z,8.63
2019-05-16T06:44:14.179Z,9.39
2019-05-16T06:45:14.096Z,9.48
2019-05-16T06:46:13.979Z,9.29
2019-05-16T06:47:19.617Z,9.39
2019-05-16T06:48:13.780Z,9.39
2019-05-16T06:49:13.691Z,9.20
2019-05-16T06:50:13.594Z,9.01
2019-05-16T06:51:13.484Z,8.63
2019-05-16T06:52:13.382Z,9.01
2019-05-16T06:53:13.284Z,8.82
2019-05-16T06:54:13.289Z,8.82
2019-05-16T06:55:13.097Z,8.63
2019-05-16T06:56:12.992Z,8.82
2019-05-16T06:57:12.883Z,8.73
2019-05-16T06:58:12.786Z,9.01
2019-05-16T06:59:12.692Z,9.48
2019-05-16T07:00:12.601Z,9.39
2019-05-16T07:01:12.596Z,9.39
2019-05-16T07:02:26.271Z,9.39
2019-05-16T07:03:12.742Z,9.48
2019-05-16T07:04:12.191Z,8.73
2019-05-16T07:05:12.103Z,8.91
2019-05-16T07:06:29.894Z,8.63
2019-05-16T07:07:12.688Z,8.91
2019-05-16T07:08:11.915Z,8.44
2019-05-16T07:09:11.690Z,8.44
2019-05-16T07:10:11.604Z,8.72
2019-05-16T07:11:11.491Z,8.06
2019-05-16T07:12:11.394Z,8.15
2019-05-16T07:13:11.293Z,8.25
2019-05-16T07:14:11.202Z,8.25
2019-05-16T07:15:12.169Z,7.40
2019-05-16T07:16:10.993Z,7.78
2019-05-16T07:17:10.890Z,7.78
2019-05-16T07:18:13.049Z,7.87
2019-05-16T07:19:10.745Z,7.68
2019-05-16T07:20:10.732Z,7.78
2019-05-16T07:21:10.971Z,8.34
2019-05-16T07:22:11.201Z,8.44
2019-05-16T07:23:10.295Z,8.06
2019-05-16T07:24:10.973Z,8.25
2019-05-16T07:25:10.999Z,8.82
2019-05-16T07:26:10.083Z,9.01
2019-05-16T07:27:12.386Z,9.67
2019-05-16T07:28:10.300Z,9.77
2019-05-16T07:29:10.996Z,9.39
2019-05-16T07:30:10.581Z,9.67
2019-05-16T07:31:17.647Z,10.44
2019-05-16T07:32:09.399Z,11.10
2019-05-16T07:33:09.777Z,11.00
2019-05-16T07:34:10.786Z,10.44
2019-05-16T07:35:09.768Z,10.34
2019-05-16T07:36:09.895Z,10.63
2019-05-16T07:37:10.781Z,10.15
2019-05-16T07:38:10.685Z,10.15
2019-05-16T07:39:10.857Z,10.34
2019-05-16T07:40:19.070Z,11.38
2019-05-16T07:41:10.977Z,13.09
2019-05-16T07:42:10.963Z,13.95
2019-05-16T07:43:10.599Z,14.51
2019-05-16T07:44:10.877Z,13.85
2019-05-16T07:45:10.948Z,14.14
2019-05-16T07:46:08.016Z,14.80
2019-05-16T07:47:07.904Z,15.66
2019-05-16T07:48:07.803Z,16.32
2019-05-16T07:49:07.715Z,15.84
2019-05-16T07:50:07.604Z,15.37
2019-05-16T07:51:10.109Z,14.23
2019-05-16T07:52:09.803Z,13.85
2019-05-16T07:53:07.305Z,13.66
2019-05-16T07:54:07.210Z,14.70
2019-05-16T07:55:07.106Z,16.79
2019-05-16T07:56:07.020Z,17.27
2019-05-16T07:57:18.611Z,17.46
2019-05-16T07:58:06.808Z,17.17
2019-05-16T07:59:06.710Z,17.27
2019-05-16T08:00:06.610Z,17.46
2019-05-16T08:01:09.068Z,16.51
2019-05-16T08:02:06.411Z,15.84
2019-05-16T08:03:06.315Z,15.18
2019-05-16T08:04:06.215Z,14.80
2019-05-16T08:05:06.111Z,16.03
2019-05-16T08:06:06.036Z,19.07
2019-05-16T08:07:05.986Z,20.11
2019-05-16T08:08:05.813Z,19.35
2019-05-16T08:09:07.809Z,18.31
2019-05-16T08:10:05.615Z,17.36
2019-05-16T08:11:05.526Z,16.98
2019-05-16T08:12:06.000Z,17.65
2019-05-16T08:13:05.328Z,19.17
2019-05-16T08:14:05.216Z,20.59
2019-05-16T08:15:05.118Z,21.92
2019-05-16T08:16:05.039Z,19.54
2019-05-16T08:17:04.919Z,18.41
2019-05-16T08:18:04.820Z,19.45
2019-05-16T08:19:04.721Z,22.86
2019-05-16T08:20:04.653Z,25.81
2019-05-16T08:21:04.538Z,26.66
2019-05-16T08:22:04.426Z,25.52
2019-05-16T08:23:04.325Z,23.91
2019-05-16T08:24:07.382Z,24.86
2019-05-16T08:25:04.125Z,24.67
2019-05-16T08:26:04.072Z,24.57
2019-05-16T08:27:03.927Z,24.19
2019-05-16T08:28:03.828Z,23.05
2019-05-16T08:29:03.731Z,21.54
2019-05-16T08:30:03.632Z,20.68
2019-05-16T08:31:03.551Z,20.87
2019-05-16T08:32:03.437Z,22.01
2019-05-16T08:33:03.343Z,23.82
2019-05-16T08:34:03.234Z,25.90
2019-05-16T08:35:03.136Z,25.81
2019-05-16T08:36:08.089Z,24.86
2019-05-16T08:37:02.938Z,26.85
2019-05-16T08:38:02.841Z,29.32
2019-05-16T08:39:02.741Z,28.75
2019-05-16T08:40:02.645Z,26.76
2019-05-16T08:42:08.034Z,24.76
2019-05-16T08:43:02.340Z,24.19
2019-05-16T08:44:02.264Z,24.10
2019-05-16T08:45:02.303Z,24.67
2019-05-16T08:46:02.045Z,27.14
2019-05-16T08:47:06.170Z,30.83
2019-05-16T08:48:01.843Z,31.69
2019-05-16T08:49:01.752Z,33.02
2019-05-16T08:50:01.695Z,31.31
2019-05-16T08:50:05.526Z,25.90
2019-05-16T08:51:02.724Z,31.88
2019-05-16T08:52:01.637Z,30.08
2019-05-16T08:53:02.883Z,28.94
2019-05-16T08:54:01.666Z,28.18
2019-05-16T08:55:03.436Z,28.37
2019-05-16T08:56:02.685Z,28.56
2019-05-16T08:57:17.547Z,28.37
2019-05-16T08:58:02.485Z,28.18
2019-05-16T08:59:02.721Z,27.70
2019-05-16T09:00:01.533Z,27.33
2019-05-16T09:01:02.184Z,26.66
2019-05-16T09:02:03.239Z,27.04
2019-05-16T09:03:01.784Z,27.14
2019-05-16T09:05:04.921Z,26.95
2019-05-16T09:06:02.990Z,27.14
2019-05-16T09:07:01.993Z,27.14
2019-05-16T09:08:00.986Z,26.95
2019-05-16T09:09:15.804Z,26.57
2019-05-16T09:10:00.328Z,25.90
2019-05-16T09:10:41.404Z,27.04
2019-05-16T09:11:04.786Z,25.43
2019-05-16T09:11:59.484Z,26.76
2019-05-16T09:12:59.366Z,27.61
2019-05-16T09:13:59.271Z,29.03
2019-05-16T09:14:59.572Z,27.33
2019-05-16T09:15:59.074Z,27.42
2019-05-16T09:16:58.984Z,27.89
2019-05-16T09:17:58.876Z,27.14
2019-05-16T09:18:58.773Z,25.71
2019-05-16T09:19:58.674Z,24.19
2019-05-16T09:20:58.575Z,24.10
2019-05-16T09:21:58.493Z,24.67
2019-05-16T09:22:58.697Z,25.43
2019-05-16T09:23:58.276Z,24.86
2019-05-16T09:24:58.181Z,24.29
2019-05-16T09:26:07.064Z,23.82
2019-05-16T09:26:58.112Z,26.38
2019-05-16T09:27:58.009Z,28.75
2019-05-16T09:28:57.782Z,28.27
2019-05-16T09:29:57.684Z,28.08
2019-05-16T09:30:57.936Z,26.47
2019-05-16T09:32:09.056Z,25.99
2019-05-16T09:32:58.826Z,26.66
2019-05-16T09:33:57.294Z,26.38
2019-05-16T09:34:57.749Z,26.38
2019-05-16T09:35:57.622Z,26.76
2019-05-16T09:37:00.598Z,25.71
2019-05-16T09:37:57.562Z,25.05
2019-05-16T09:38:57.748Z,25.92
2019-05-16T09:39:57.218Z,25.15
2019-05-16T09:40:57.116Z,26.10
2019-05-16T09:41:58.922Z,28.10
2019-05-16T09:42:56.927Z,28.96
2019-05-16T09:43:58.850Z,29.24
2019-05-16T09:44:57.705Z,29.14
2019-05-16T09:46:03.214Z,29.90
2019-05-16T09:46:56.974Z,31.41
2019-05-16T09:47:57.339Z,32.18
2019-05-16T09:49:12.993Z,30.85
2019-05-16T09:49:57.943Z,31.60
2019-05-16T09:50:57.716Z,31.60
2019-05-16T09:51:56.811Z,30.93
2019-05-16T09:52:56.572Z,29.89
2019-05-16T09:53:56.724Z,31.50
2019-05-16T09:54:57.519Z,32.18
2019-05-16T09:55:57.322Z,30.85
2019-05-16T09:56:57.006Z,31.02
2019-05-16T09:57:58.190Z,29.71
2019-05-16T09:58:57.234Z,29.43
2019-05-16T09:59:57.053Z,30.00
2019-05-16T10:00:57.309Z,30.28
2019-05-16T10:01:56.929Z,29.24
2019-05-16T10:02:54.547Z,27.81
2019-05-16T10:03:54.325Z,28.00
2019-05-16T10:04:54.229Z,29.43
2019-05-16T10:05:56.941Z,30.19
2019-05-16T10:06:54.030Z,30.09
2019-05-16T10:07:53.949Z,30.66
2019-05-16T10:08:53.833Z,30.76
2019-05-16T10:09:53.854Z,31.42
2019-05-16T10:10:53.637Z,31.52
2019-05-16T10:12:06.994Z,32.65
2019-05-16T10:12:53.455Z,32.37
2019-05-16T10:13:53.341Z,32.28
2019-05-16T10:14:53.245Z,32.37
2019-05-16T10:15:53.145Z,31.52
2019-05-16T10:16:53.154Z,31.90
2019-05-16T10:17:52.961Z,31.52
2019-05-16T10:18:52.845Z,30.28
2019-05-16T10:19:52.749Z,31.02
2019-05-16T10:20:52.652Z,31.60
2019-05-16T10:21:52.552Z,31.71
2019-05-16T10:22:52.575Z,30.38
2019-05-16T10:23:52.361Z,29.90
2019-05-16T10:24:52.260Z,29.24
2019-05-16T10:25:52.159Z,28.29
2019-05-16T10:26:54.009Z,28.57
2019-05-16T10:27:51.976Z,28.00
2019-05-16T10:28:51.864Z,29.43
2019-05-16T10:29:51.768Z,29.71
2019-05-16T10:30:51.779Z,30.00
2019-05-16T10:31:53.230Z,30.00
2019-05-16T10:32:51.485Z,30.09
2019-05-16T10:33:51.373Z,31.33
2019-05-16T10:34:51.272Z,31.33
2019-05-16T10:35:51.174Z,31.23
2019-05-16T10:36:51.198Z,30.00
2019-05-16T10:37:50.992Z,29.90
2019-05-16T10:38:50.895Z,29.43
2019-05-16T10:39:50.781Z,27.72
2019-05-16T10:40:50.735Z,28.38
2019-05-16T10:41:50.582Z,28.67
2019-05-16T10:42:50.487Z,29.05
2019-05-16T10:43:50.397Z,30.19
2019-05-16T10:44:50.286Z,29.71
2019-05-16T10:45:50.190Z,28.77
2019-05-16T10:46:50.102Z,28.38
2019-05-16T10:47:49.995Z,28.10
2019-05-16T10:48:49.908Z,28.77
2019-05-16T10:49:49.798Z,30.76
2019-05-16T10:50:49.756Z,31.23
2019-05-16T10:51:49.630Z,31.90
2019-05-16T10:53:12.992Z,31.80
2019-05-16T10:54:05.771Z,30.57
2019-05-16T10:54:57.580Z,30.09
2019-05-16T10:55:49.204Z,30.38
2019-05-16T10:56:49.202Z,30.38
2019-05-16T10:57:49.105Z,31.99
2019-05-16T10:59:14.654Z,31.71
2019-05-16T11:00:05.156Z,32.09
2019-05-16T11:01:10.945Z,32.37
2019-05-16T11:01:48.617Z,30.85
2019-05-16T11:02:48.548Z,30.76
2019-05-16T11:03:49.181Z,30.47
2019-05-16T11:05:00.122Z,30.94
2019-05-16T11:06:01.393Z,33.13
2019-05-16T11:06:48.123Z,33.61
2019-05-16T11:07:50.611Z,33.70
2019-05-16T11:08:47.939Z,32.75
2019-05-16T11:09:58.336Z,31.52
2019-05-16T11:10:47.806Z,31.80
2019-05-16T11:11:47.835Z,32.37
2019-05-16T11:12:54.128Z,31.71
2019-05-16T11:13:50.571Z,31.04
2019-05-16T11:14:47.904Z,32.18
2019-05-16T11:15:47.238Z,33.23
2019-05-16T11:16:47.480Z,35.03
2019-05-16T11:17:47.042Z,33.32
2019-05-16T11:18:46.959Z,33.23
2019-05-16T11:19:46.845Z,33.13
2019-05-16T11:20:49.285Z,34.84
2019-05-16T11:21:46.961Z,35.41
2019-05-16T11:22:47.740Z,35.98
2019-05-16T11:23:47.115Z,36.46
2019-05-16T11:24:47.100Z,36.36
2019-05-16T11:25:47.146Z,37.02
2019-05-16T11:26:47.342Z,36.57
2019-05-16T11:27:46.879Z,36.76
2019-05-16T11:28:48.635Z,37.04
2019-05-16T11:29:47.288Z,36.47
2019-05-16T11:30:47.630Z,37.52
2019-05-16T11:31:46.772Z,39.61
2019-05-16T11:32:46.918Z,42.74
2019-05-16T11:33:47.756Z,43.60
2019-05-16T11:34:47.778Z,42.93
2019-05-16T11:35:47.624Z,43.02
2019-05-16T11:36:47.561Z,42.27
2019-05-16T11:37:47.138Z,41.22
2019-05-16T11:38:47.474Z,41.79
2019-05-16T11:39:46.594Z,41.50
2019-05-16T11:40:47.289Z,41.89
2019-05-16T11:41:47.334Z,41.89
2019-05-16T11:42:47.050Z,39.89
2019-05-16T11:43:44.509Z,39.79
2019-05-16T11:44:47.606Z,43.50
2019-05-16T11:45:46.711Z,43.41
2019-05-16T11:46:44.200Z,42.74
2019-05-16T11:47:46.840Z,41.69
2019-05-16T11:48:44.006Z,42.36
2019-05-16T11:49:43.927Z,42.17
2019-05-16T11:50:43.824Z,44.17
2019-05-16T11:51:43.719Z,43.21
2019-05-16T11:52:43.614Z,42.83
2019-05-16T11:53:43.660Z,43.79
2019-05-16T11:54:43.422Z,44.83
2019-05-16T11:55:52.114Z,45.59
2019-05-16T11:56:43.223Z,48.06
2019-05-16T11:57:43.126Z,48.82
2019-05-16T11:58:43.032Z,48.54
2019-05-16T11:59:42.946Z,50.24
2019-05-16T12:00:42.935Z,51.48
2019-05-16T12:01:42.735Z,51.01
2019-05-16T12:02:43.107Z,51.86
2019-05-16T12:03:42.542Z,52.53
2019-05-16T12:04:42.456Z,51.86
2019-05-16T12:05:42.348Z,51.48
2019-05-16T12:06:42.250Z,52.17
2019-05-16T12:07:44.378Z,52.84
2019-05-16T12:08:42.053Z,55.97
2019-05-16T12:09:47.025Z,56.80
2019-05-16T12:10:41.860Z,57.59
2019-05-16T12:11:41.760Z,55.97
2019-05-16T12:12:41.663Z,54.90
2019-05-16T12:13:41.568Z,53.59
2019-05-16T12:14:41.611Z,53.59
2019-05-16T12:15:41.372Z,55.97
2019-05-16T12:16:41.275Z,56.16
2019-05-16T12:17:41.198Z,55.78
2019-05-16T12:18:41.081Z,58.25
2019-05-16T12:19:43.979Z,59.11
2019-05-16T12:20:40.890Z,59.49
2019-05-16T12:21:40.891Z,61.29
2019-05-16T12:22:40.693Z,59.68
2019-05-16T12:23:40.595Z,59.58
2019-05-16T12:24:41.490Z,59.11
2019-05-16T12:25:40.399Z,58.25
2019-05-16T12:26:40.311Z,58.73
2019-05-16T12:27:42.094Z,58.54
2019-05-16T12:28:40.219Z,58.54
2019-05-16T12:29:40.023Z,58.83
2019-05-16T12:30:40.471Z,58.63
2019-05-16T12:31:54.129Z,58.13
2019-05-16T12:32:39.720Z,56.45
2019-05-16T12:33:39.628Z,58.25
2019-05-16T12:34:39.539Z,58.16
2019-05-16T12:35:39.530Z,58.51
2019-05-16T12:36:39.338Z,57.75
2019-05-16T12:37:39.233Z,57.94
2019-05-16T12:38:39.134Z,56.80
2019-05-16T12:39:39.053Z,56.51
2019-05-16T12:40:38.940Z,58.32
2019-05-16T12:41:41.108Z,57.28
2019-05-16T12:42:38.858Z,56.99
2019-05-16T12:43:48.969Z,57.40
2019-05-16T12:44:38.567Z,57.37
2019-05-16T12:45:38.856Z,56.70
2019-05-16T12:46:38.361Z,56.51
2019-05-16T12:47:38.262Z,56.61
2019-05-16T12:48:38.163Z,57.65
2019-05-16T12:49:38.082Z,56.51
2019-05-16T12:50:38.909Z,53.95
2019-05-16T12:51:37.872Z,52.81
2019-05-16T12:52:38.390Z,53.57
2019-05-16T12:53:37.676Z,53.66
2019-05-16T12:54:37.607Z,53.00
2019-05-16T12:55:37.479Z,52.33
2019-05-16T12:56:37.842Z,51.01
2019-05-16T12:57:38.334Z,51.01
2019-05-16T12:58:41.407Z,50.53